Time;durP1;ratioP1;P1;durP2;ratioP2;P2;SDS_P1;SDS_P2;PMS_P1;PMS_P2;Temp;Humidity;BMP_temperature;BMP_pressure;BME280_temperature;BME280_humidity;BME280_pressure;Samples;Min_cycle;Max_cycle;Signal;HPM_P1;HPM_P2
2021/06/06 00:01:22;;;;;;;40.25;29.48;;;;;;;14.28;88.15;100964.56;5018594;28;20120;-75
2021/06/06 00:03:51;;;;;;;37.75;28.33;;;;;;;14.33;88.75;100975.00;5018905;28;20073;-75
2021/06/06 00:06:33;;;;;;;40.13;29.58;;;;;;;14.37;88.96;100976.50;5018333;28;20352;-74
2021/06/06 00:09:02;;;;;;;40.05;29.40;;;;;;;14.30;88.95;100953.69;5018432;28;20080;-74
2021/06/06 00:11:31;;;;;;;39.47;29.10;;;;;;;14.34;88.74;100979.41;5017263;28;20057;-74
2021/06/06 00:14:01;;;;;;;40.75;29.33;;;;;;;14.32;89.05;100974.13;5017721;28;20045;-75
2021/06/06 00:16:31;;;;;;;44.92;30.35;;;;;;;14.33;89.16;100978.53;5018422;28;20054;-75
2021/06/06 00:18:59;;;;;;;40.35;29.60;;;;;;;14.32;89.38;100975.97;5022791;28;20053;-75
2021/06/06 00:21:28;;;;;;;40.60;29.48;;;;;;;14.27;89.35;100976.25;5038173;28;20053;-75
2021/06/06 00:23:56;;;;;;;42.33;31.30;;;;;;;14.33;89.11;100967.78;5037104;28;20080;-74
2021/06/06 00:26:23;;;;;;;40.25;30.20;;;;;;;14.29;89.69;100979.72;5037783;28;20075;-75
2021/06/06 00:28:51;;;;;;;43.60;31.60;;;;;;;14.19;89.37;100976.75;5037958;28;20390;-75
2021/06/06 00:31:18;;;;;;;44.85;31.90;;;;;;;14.17;89.94;100977.81;5037630;28;20103;-75
2021/06/06 00:33:46;;;;;;;42.53;31.17;;;;;;;14.19;89.91;100978.56;5038010;28;20355;-75
2021/06/06 00:36:13;;;;;;;42.17;30.50;;;;;;;14.19;90.12;100974.06;5037925;28;20068;-75
2021/06/06 00:38:39;;;;;;;48.30;32.85;;;;;;;14.25;89.91;100973.69;5037834;28;20100;-75
2021/06/06 00:41:07;;;;;;;43.47;31.20;;;;;;;14.20;89.67;100958.78;5037764;28;20049;-75
2021/06/06 00:43:34;;;;;;;51.50;33.03;;;;;;;14.28;89.49;100969.06;5036770;28;20057;-75
2021/06/06 00:46:01;;;;;;;48.67;32.58;;;;;;;14.29;89.56;100970.78;5037453;28;20062;-75
2021/06/06 00:48:28;;;;;;;46.95;33.55;;;;;;;14.22;89.63;100979.22;5037649;28;20107;-75
2021/06/06 00:50:57;;;;;;;45.70;32.45;;;;;;;14.21;89.38;100979.31;5036100;28;20054;-75
2021/06/06 00:53:36;;;;;;;44.55;32.42;;;;;;;14.18;89.53;100977.72;5036514;28;20100;-74
2021/06/06 00:56:07;;;;;;;45.95;31.38;;;;;;;14.15;90.09;100985.94;5036436;28;20057;-75
2021/06/06 00:58:34;;;;;;;46.28;32.70;;;;;;;14.11;90.09;100979.06;5037148;28;20457;-73
2021/06/06 01:01:03;;;;;;;48.38;32.22;;;;;;;14.10;90.84;100969.25;5037325;28;20046;-75
2021/06/06 01:03:30;;;;;;;44.72;31.17;;;;;;;14.08;90.79;100976.56;5037164;28;20059;-76
2021/06/06 01:06:04;;;;;;;43.30;32.63;;;;;;;14.09;91.16;100975.59;5036327;28;20119;-74
2021/06/06 01:08:33;;;;;;;50.17;33.15;;;;;;;14.06;90.90;100970.44;5037342;28;20104;-75
2021/06/06 01:11:26;;;;;;;46.38;31.73;;;;;;;14.05;90.81;100968.72;5036230;28;20076;-75
2021/06/06 01:14:01;;;;;;;45.65;31.90;;;;;;;14.07;90.72;100964.09;5037363;28;20046;-75
2021/06/06 01:16:37;;;;;;;44.40;30.83;;;;;;;14.19;90.00;100967.81;5036007;28;20103;-74
2021/06/06 01:19:19;;;;;;;46.75;30.77;;;;;;;14.13;90.54;100971.75;5031452;28;20085;-74
2021/06/06 01:21:58;;;;;;;45.45;31.55;;;;;;;14.08;90.72;100974.75;5016132;28;20116;-75
2021/06/06 01:24:33;;;;;;;44.88;30.73;;;;;;;14.11;90.99;100971.84;5017142;28;20111;-74
2021/06/06 01:27:07;;;;;;;44.42;31.48;;;;;;;14.16;90.34;100974.25;5016903;28;20045;-75
2021/06/06 01:29:42;;;;;;;44.78;32.05;;;;;;;14.07;90.28;100961.41;5016955;28;20068;-75
2021/06/06 01:32:23;;;;;;;48.03;30.27;;;;;;;14.07;91.00;100954.22;5016649;28;20589;-75
2021/06/06 01:35:16;;;;;;;43.00;30.77;;;;;;;14.09;90.22;100962.16;5017089;28;20399;-75
2021/06/06 01:37:49;;;;;;;45.65;30.08;;;;;;;14.04;90.76;100958.91;5016124;28;20324;-75
2021/06/06 01:40:21;;;;;;;38.58;28.80;;;;;;;14.07;90.14;100964.09;5017043;28;20049;-75
2021/06/06 01:42:52;;;;;;;37.38;28.05;;;;;;;14.12;89.79;100962.00;5016916;28;20054;-74
2021/06/06 01:45:27;;;;;;;41.50;28.33;;;;;;;14.05;89.54;100955.28;5016705;28;20057;-75
2021/06/06 01:47:59;;;;;;;42.60;29.48;;;;;;;13.99;89.38;100962.75;5016706;28;20057;-75
2021/06/06 01:50:30;;;;;;;44.55;30.73;;;;;;;13.96;89.70;100962.09;5016534;28;20148;-74
2021/06/06 01:52:59;;;;;;;38.90;29.73;;;;;;;13.94;90.30;100966.69;5016628;28;20107;-74
2021/06/06 01:55:30;;;;;;;38.90;29.05;;;;;;;13.90;89.52;100963.31;5016779;28;20324;-74
2021/06/06 01:57:59;;;;;;;;;;;;;;;13.96;89.68;100967.47;5015888;28;20343;-75
2021/06/06 02:00:34;;;;;;;38.80;27.23;;;;;;;13.94;88.96;100959.50;5016631;28;19921;-75
2021/06/06 02:03:02;;;;;;;42.60;27.20;;;;;;;13.81;89.42;100958.53;5014589;28;20054;-75
2021/06/06 02:05:29;;;;;;;41.03;27.35;;;;;;;13.86;89.46;100964.47;5016556;28;20415;-75
2021/06/06 02:07:58;;;;;;;39.13;27.52;;;;;;;13.86;90.22;100967.16;5016368;28;20049;-76
2021/06/06 02:10:35;;;;;;;38.60;27.95;;;;;;;13.83;89.42;100967.34;5016082;28;20387;-75
2021/06/06 02:13:12;;;;;;;40.22;28.08;;;;;;;13.83;90.10;100959.28;5016145;28;20050;-75
2021/06/06 02:15:43;;;;;;;39.10;26.88;;;;;;;13.84;90.13;100958.34;5016171;28;20054;-75
2021/06/06 02:18:10;;;;;;;38.22;26.10;;;;;;;13.92;89.20;100965.91;5015757;28;20510;-76
2021/06/06 02:20:42;;;;;;;33.90;25.27;;;;;;;13.91;89.71;100965.06;5034149;28;20083;-75
2021/06/06 02:23:10;;;;;;;39.63;25.52;;;;;;;13.89;88.97;100960.75;5036000;28;20183;-75
2021/06/06 02:25:38;;;;;;;34.45;25.15;;;;;;;13.89;88.71;100966.13;5034663;28;20324;-76
2021/06/06 02:28:20;;;;;;;35.95;25.83;;;;;;;13.88;88.70;100967.91;5035470;28;20053;-75
2021/06/06 02:31:13;;;;;;;35.00;25.27;;;;;;;13.80;88.94;100972.91;5035932;28;20053;-76
2021/06/06 02:33:45;;;;;;;37.92;25.67;;;;;;;13.82;89.12;100971.84;5054302;28;20055;-76
2021/06/06 02:36:15;;;;;;;35.95;26.30;;;;;;;13.73;89.10;100968.88;5035619;28;20488;-76
2021/06/06 02:38:54;;;;;;;38.63;27.33;;;;;;;13.69;90.29;100961.00;5035582;28;20049;-75
2021/06/06 02:41:36;;;;;;;36.35;25.90;;;;;;;13.80;89.86;100975.59;5035484;28;20059;-75
2021/06/06 02:44:05;;;;;;;34.30;25.48;;;;;;;13.80;89.50;100973.78;5035189;28;20419;-75
2021/06/06 02:46:34;;;;;;;37.13;27.25;;;;;;;13.81;89.43;100980.00;5035420;28;20053;-75
2021/06/06 02:49:06;;;;;;;38.78;26.55;;;;;;;13.67;89.25;100954.03;5034965;28;20053;-75
2021/06/06 02:51:38;;;;;;;37.83;26.90;;;;;;;13.70;89.32;100968.13;5035450;28;20049;-76
2021/06/06 02:54:10;;;;;;;41.33;27.05;;;;;;;13.78;90.36;100980.19;5035299;28;20061;-76
2021/06/06 02:56:43;;;;;;;40.03;27.42;;;;;;;13.83;89.71;100975.38;5035303;28;20501;-76
2021/06/06 02:59:18;;;;;;;38.58;27.33;;;;;;;13.78;89.59;100959.56;5035160;28;20049;-74
2021/06/06 03:01:49;;;;;;;38.03;27.23;;;;;;;13.76;89.80;100966.88;5034181;28;20111;-76
2021/06/06 03:04:21;;;;;;;36.38;25.95;;;;;;;13.75;89.81;100954.41;5035419;28;20111;-75
2021/06/06 03:06:53;;;;;;;41.28;28.63;;;;;;;13.78;90.55;100959.56;5035455;28;20057;-75
2021/06/06 03:09:19;;;;;;;40.53;27.25;;;;;;;13.80;89.95;100967.53;5035171;28;20041;-75
2021/06/06 03:11:50;;;;;;;39.28;27.02;;;;;;;13.85;89.52;100957.41;5035180;28;20054;-75
2021/06/06 03:14:22;;;;;;;36.38;26.60;;;;;;;13.85;89.31;100952.88;5034028;28;20057;-73
2021/06/06 03:16:58;;;;;;;37.58;26.20;;;;;;;13.76;89.88;100945.41;5038406;28;20057;-74
2021/06/06 03:19:29;;;;;;;35.13;26.25;;;;;;;13.77;90.26;100955.19;5038886;28;20457;-75
2021/06/06 03:21:56;;;;;;;40.08;27.88;;;;;;;13.70;90.51;100951.16;5039137;28;20046;-75
2021/06/06 03:24:34;;;;;;;41.92;27.10;;;;;;;13.68;90.41;100948.56;5039143;28;20058;-75
2021/06/06 03:27:05;;;;;;;38.63;27.13;;;;;;;13.73;89.99;100934.84;5038859;28;20095;-75
2021/06/06 03:29:39;;;;;;;45.13;27.92;;;;;;;13.77;90.27;100943.59;5039177;28;20111;-75
2021/06/06 03:32:11;;;;;;;41.30;28.05;;;;;;;13.75;90.30;100946.38;5038791;28;20108;-75
2021/06/06 03:34:38;;;;;;;36.80;27.52;;;;;;;13.67;89.91;100937.94;5021343;28;20368;-74
2021/06/06 03:37:05;;;;;;;41.67;27.58;;;;;;;13.74;90.31;100941.97;5038696;28;20057;-75
2021/06/06 03:39:32;;;;;;;39.15;26.73;;;;;;;13.69;90.06;100931.50;5038748;28;20103;-74
2021/06/06 03:42:00;;;;;;;40.72;27.15;;;;;;;13.75;90.43;100940.13;5038821;28;20053;-75
2021/06/06 03:44:27;;;;;;;40.50;25.98;;;;;;;13.73;90.00;100934.00;5038484;28;20385;-73
2021/06/06 03:46:55;;;;;;;39.88;27.48;;;;;;;13.66;90.15;100938.88;5038459;28;20057;-74
2021/06/06 03:49:24;;;;;;;41.17;27.98;;;;;;;13.60;90.67;100952.66;5038616;28;20103;-75
2021/06/06 03:51:51;;;;;;;37.90;27.25;;;;;;;13.57;91.30;100945.69;5037826;28;20061;-74
2021/06/06 03:54:18;;;;;;;38.05;27.88;;;;;;;13.50;91.71;100939.81;5038750;28;20397;-74
2021/06/06 03:56:47;;;;;;;43.35;27.50;;;;;;;13.53;92.01;100950.38;5038621;28;20053;-75
2021/06/06 03:59:15;;;;;;;39.58;28.25;;;;;;;13.56;91.63;100960.91;5038335;28;20049;-74
2021/06/06 04:01:44;;;;;;;41.45;28.75;;;;;;;13.47;92.32;100936.47;5038317;28;20053;-75
2021/06/06 04:04:10;;;;;;;38.17;27.63;;;;;;;13.56;93.05;100960.03;5038224;28;20045;-74
2021/06/06 04:06:37;;;;;;;43.42;29.08;;;;;;;13.62;91.81;100948.91;5037670;28;20099;-74
2021/06/06 04:09:07;;;;;;;41.85;29.02;;;;;;;13.53;92.17;100950.38;5038390;28;20056;-75
2021/06/06 04:11:35;;;;;;;41.75;28.65;;;;;;;13.39;93.09;100951.16;5038259;28;20100;-75
2021/06/06 04:14:02;;;;;;;44.35;30.65;;;;;;;13.41;94.30;100951.09;5038225;28;20067;-75
2021/06/06 04:16:30;;;;;;;48.13;32.00;;;;;;;13.37;94.20;100952.22;5037890;28;20375;-75
2021/06/06 04:18:57;;;;;;;45.03;30.75;;;;;;;13.34;95.14;100955.94;5033300;28;20089;-75
2021/06/06 04:21:27;;;;;;;46.20;31.30;;;;;;;13.35;95.84;100949.63;5018128;28;20053;-75
2021/06/06 04:23:54;;;;;;;48.65;32.33;;;;;;;13.34;94.84;100950.56;5018317;28;20175;-75
2021/06/06 04:26:21;;;;;;;49.25;31.92;;;;;;;13.34;95.40;100961.28;5017439;28;20069;-75
2021/06/06 04:28:49;;;;;;;47.13;32.03;;;;;;;13.37;96.21;100950.41;5018072;28;20096;-75
2021/06/06 04:31:16;;;;;;;49.28;31.75;;;;;;;13.38;95.95;100952.13;5017712;28;20399;-76
2021/06/06 04:33:44;;;;;;;46.03;31.00;;;;;;;13.38;94.96;100956.59;5018104;28;20077;-75
2021/06/06 04:36:11;;;;;;;47.22;30.98;;;;;;;13.35;95.41;100941.56;5018329;28;20050;-75
2021/06/06 04:38:38;;;;;;;49.38;31.63;;;;;;;13.37;95.11;100953.09;5017748;28;20424;-75
2021/06/06 04:41:09;;;;;;;45.83;31.05;;;;;;;13.36;95.84;100958.53;5018031;28;20375;-74
2021/06/06 04:43:36;;;;;;;;;;;;;;;13.38;95.72;100957.50;5017327;28;20062;-75
2021/06/06 04:46:04;;;;;;;45.45;30.08;;;;;;;13.40;95.91;100960.94;5017912;28;19921;-75
2021/06/06 04:48:37;;;;;;;49.63;31.10;;;;;;;13.38;95.50;100961.97;5017763;28;20428;-75
2021/06/06 04:51:08;;;;;;;45.75;30.77;;;;;;;13.46;95.35;100961.56;5017757;28;20062;-76
2021/06/06 04:53:34;;;;;;;46.13;31.48;;;;;;;13.47;95.88;100974.00;5017817;28;20053;-76
2021/06/06 04:56:01;;;;;;;43.17;29.80;;;;;;;13.47;95.25;100972.19;5017267;28;20053;-75
2021/06/06 04:58:30;;;;;;;45.20;29.58;;;;;;;13.43;94.68;100970.63;5017342;28;20100;-75
2021/06/06 05:00:57;;;;;;;48.03;29.63;;;;;;;13.39;94.97;100974.41;5017517;28;20128;-77
2021/06/06 05:03:25;;;;;;;50.38;30.80;;;;;;;13.44;94.50;100975.91;5017339;28;20049;-75
2021/06/06 05:05:52;;;;;;;47.63;29.83;;;;;;;13.43;95.29;100974.16;5016512;28;20050;-75
2021/06/06 05:08:21;;;;;;;44.90;28.45;;;;;;;13.43;94.94;100976.84;5016299;28;20054;-75
2021/06/06 05:10:49;;;;;;;45.05;29.67;;;;;;;13.46;95.23;100974.97;5017141;28;20054;-75
2021/06/06 05:13:16;;;;;;;44.15;28.77;;;;;;;13.45;94.85;100971.38;5016431;28;20120;-75
2021/06/06 05:15:43;;;;;;;43.60;27.35;;;;;;;13.43;94.76;100970.63;5017337;28;20065;-74
2021/06/06 05:18:11;;;;;;;45.63;29.35;;;;;;;13.46;95.35;100974.97;5015934;28;20498;-76
2021/06/06 05:20:41;;;;;;;51.95;29.85;;;;;;;13.34;96.66;100966.66;5035165;28;20054;-76
2021/06/06 05:23:09;;;;;;;46.10;30.08;;;;;;;13.26;96.44;100963.59;5036716;28;20175;-74
2021/06/06 05:25:37;;;;;;;44.75;30.13;;;;;;;13.26;97.17;100968.94;5036660;28;20385;-76
2021/06/06 05:28:05;;;;;;;43.60;28.83;;;;;;;13.24;97.77;100965.50;5037211;28;20099;-74
2021/06/06 05:30:35;;;;;;;49.45;29.83;;;;;;;13.17;97.49;100960.50;5035650;28;20045;-75
2021/06/06 05:33:03;;;;;;;48.90;30.60;;;;;;;13.12;98.58;100967.94;5036754;28;20328;-74
2021/06/06 05:35:32;;;;;;;46.22;30.48;;;;;;;13.16;98.47;100984.69;5036841;28;20057;-74
2021/06/06 05:37:59;;;;;;;49.78;30.50;;;;;;;13.11;100.00;100984.97;5035430;28;20093;-74
2021/06/06 05:40:30;;;;;;;46.55;30.88;;;;;;;13.10;100.00;100985.06;5036302;28;20049;-75
2021/06/06 05:42:57;;;;;;;48.45;29.52;;;;;;;13.11;100.00;100976.94;5036561;28;20060;-75
2021/06/06 05:45:25;;;;;;;48.05;28.90;;;;;;;13.12;99.97;100981.34;5035152;28;20395;-74
2021/06/06 05:47:53;;;;;;;51.17;31.05;;;;;;;13.06;100.00;100970.13;5036395;28;20049;-74
2021/06/06 05:50:23;;;;;;;55.88;31.90;;;;;;;13.11;100.00;100976.94;5036271;28;20057;-75
2021/06/06 05:52:50;;;;;;;48.05;31.70;;;;;;;13.15;100.00;100978.50;5036494;28;20053;-74
2021/06/06 05:55:18;;;;;;;45.55;30.35;;;;;;;13.19;100.00;100984.53;5036431;28;20053;-75
2021/06/06 05:57:45;;;;;;;47.58;29.98;;;;;;;13.11;100.00;100968.03;5036150;28;20054;-74
2021/06/06 06:00:16;;;;;;;49.97;32.13;;;;;;;13.15;100.00;100982.97;5035930;28;20794;-73
2021/06/06 06:02:43;;;;;;;;;;;;;;;13.17;100.00;100981.94;5036524;28;20060;-75
2021/06/06 06:05:10;;;;;;;47.10;29.88;;;;;;;13.21;100.00;100981.75;5035922;28;20208;-75
2021/06/06 06:07:37;;;;;;;44.35;29.58;;;;;;;13.04;100.00;100956.81;5035848;28;20095;-75
2021/06/06 06:10:09;;;;;;;46.58;31.63;;;;;;;13.16;100.00;100982.03;5035698;28;20076;-75
2021/06/06 06:12:36;;;;;;;48.05;32.70;;;;;;;13.17;100.00;100976.59;5035709;28;20083;-74
2021/06/06 06:15:07;;;;;;;47.00;32.08;;;;;;;13.23;100.00;100971.81;5035725;28;20103;-75
2021/06/06 06:17:34;;;;;;;51.97;32.70;;;;;;;13.23;100.00;100978.03;5034640;28;20064;-76
2021/06/06 06:20:08;;;;;;;46.20;30.70;;;;;;;13.22;100.00;100980.78;5022752;28;20084;-75
2021/06/06 06:22:34;;;;;;;46.78;31.92;;;;;;;13.26;100.00;100977.84;5015104;28;20054;-77
2021/06/06 06:25:02;;;;;;;48.30;32.38;;;;;;;13.21;100.00;100982.63;5031226;28;20057;-76
2021/06/06 06:27:29;;;;;;;56.90;34.05;;;;;;;13.22;100.00;100983.47;5015917;28;20394;-74
2021/06/06 06:29:56;;;;;;;49.67;32.60;;;;;;;13.22;100.00;100980.78;5015570;28;20049;-72
2021/06/06 06:32:23;;;;;;;50.42;31.83;;;;;;;13.22;100.00;100978.09;5015804;28;20517;-73
2021/06/06 06:34:49;;;;;;;53.60;33.05;;;;;;;13.12;100.00;100962.59;5015697;28;20054;-70
2021/06/06 06:37:18;;;;;;;54.92;33.70;;;;;;;13.15;100.00;100973.13;5021201;28;20081;-81
2021/06/06 06:39:46;;;;;;;48.72;32.33;;;;;;;13.21;100.00;100977.25;5020502;28;20049;-78
2021/06/06 06:42:13;;;;;;;50.30;32.40;;;;;;;13.21;100.00;100976.38;5024859;28;20052;-76
2021/06/06 06:44:40;;;;;;;54.08;32.75;;;;;;;13.25;100.00;100984.16;5026134;28;20123;-73
2021/06/06 06:47:06;;;;;;;46.28;30.52;;;;;;;13.25;100.00;100980.63;5022190;28;20081;-74
2021/06/06 06:49:33;;;;;;;50.28;30.88;;;;;;;13.18;100.00;100964.91;5020578;28;20045;-74
2021/06/06 06:52:00;;;;;;;46.85;30.60;;;;;;;13.27;100.00;100971.53;5025682;28;20065;-75
2021/06/06 06:54:26;;;;;;;47.97;32.03;;;;;;;13.28;100.00;100983.09;5023457;28;20052;-75
2021/06/06 06:56:53;;;;;;;45.10;31.42;;;;;;;13.31;100.00;100982.94;5025122;28;20045;-74
2021/06/06 06:59:26;;;;;;;49.45;32.38;;;;;;;13.24;100.00;100986.94;5022971;28;20165;-73
2021/06/06 07:01:59;;;;;;;53.20;33.30;;;;;;;13.24;100.00;100986.94;5036885;28;20054;-75
2021/06/06 07:04:25;;;;;;;52.80;32.67;;;;;;;13.27;100.00;100984.06;5017877;28;20045;-73
2021/06/06 07:06:53;;;;;;;50.67;31.55;;;;;;;13.30;100.00;100973.19;5024555;28;20045;-74
2021/06/06 07:09:21;;;;;;;51.13;33.53;;;;;;;13.04;100.00;100965.69;5023759;28;21167;-74
2021/06/06 07:11:48;;;;;;;57.03;36.42;;;;;;;13.20;100.00;100985.38;5026364;28;20045;-74
2021/06/06 07:14:16;;;;;;;60.70;37.35;;;;;;;13.24;100.00;100997.66;5024022;28;20085;-76
2021/06/06 07:16:43;;;;;;;64.70;38.35;;;;;;;13.09;100.00;100976.19;5023537;28;20054;-78
2021/06/06 07:19:12;;;;;;;55.97;36.72;;;;;;;13.26;100.00;101001.09;5024923;28;20057;-78
2021/06/06 07:21:39;;;;;;;66.88;40.13;;;;;;;13.18;100.00;100999.75;5023621;28;20431;-76
2021/06/06 07:24:06;;;;;;;61.33;38.58;;;;;;;12.90;99.64;100969.19;5025277;28;20057;-79
2021/06/06 07:26:42;;;;;;;65.53;38.40;;;;;;;13.07;100.00;101002.19;5023077;28;20084;-81
2021/06/06 07:29:12;;;;;;;59.70;37.47;;;;;;;13.13;100.00;100998.31;5025596;28;20041;-73
2021/06/06 07:31:42;;;;;;;62.20;38.88;;;;;;;13.14;100.00;101000.88;5024935;28;20104;-71
2021/06/06 07:34:12;;;;;;;59.08;36.80;;;;;;;13.21;100.00;101005.88;5021411;28;20080;-72
2021/06/06 07:36:40;;;;;;;62.90;39.28;;;;;;;13.13;100.00;101003.66;5029560;28;20045;-71
2021/06/06 07:39:06;;;;;;;64.93;38.67;;;;;;;13.16;99.82;101011.50;5044264;28;20049;-75
2021/06/06 07:41:33;;;;;;;67.30;41.75;;;;;;;13.09;100.00;101011.00;5035005;28;20390;-76
2021/06/06 07:44:00;;;;;;;60.08;37.95;;;;;;;13.10;99.78;101004.69;5034583;28;20054;-76
2021/06/06 07:46:27;;;;;;;62.47;39.13;;;;;;;13.15;99.87;101015.16;5033577;28;20049;-78
2021/06/06 07:48:56;;;;;;;65.97;40.55;;;;;;;13.05;99.95;101004.09;5034840;28;20102;-78
2021/06/06 07:51:23;;;;;;;63.70;39.80;;;;;;;13.01;100.00;101000.72;5033518;28;20354;-81
2021/06/06 07:53:51;;;;;;;63.38;41.53;;;;;;;13.09;100.00;101018.19;5034561;28;20761;-78
2021/06/06 07:56:17;;;;;;;69.93;41.00;;;;;;;12.94;100.00;100993.13;5033699;28;20049;-77
2021/06/06 07:58:44;;;;;;;73.85;43.20;;;;;;;12.99;100.00;101002.66;5034619;28;20112;-82
2021/06/06 08:01:12;;;;;;;71.35;41.47;;;;;;;13.15;100.00;101020.50;5034248;28;20107;-78
2021/06/06 08:03:38;;;;;;;68.57;42.28;;;;;;;13.23;100.00;101025.44;5038306;28;20423;-74
2021/06/06 08:06:09;;;;;;;61.20;40.88;;;;;;;13.22;100.00;101015.63;5038328;28;20123;-78
2021/06/06 08:08:36;;;;;;;67.00;40.08;;;;;;;13.20;100.00;101017.56;5038305;28;20049;-77
2021/06/06 08:11:07;;;;;;;71.35;40.83;;;;;;;13.04;100.00;100997.84;5037307;28;20516;-80
2021/06/06 08:13:35;;;;;;;70.90;43.05;;;;;;;13.28;100.00;101020.63;5038559;28;20407;-81
2021/06/06 08:16:03;;;;;;;69.60;40.55;;;;;;;13.37;100.00;101020.13;5038445;28;20327;-80
2021/06/06 08:18:34;;;;;;;61.70;40.65;;;;;;;13.42;100.00;101014.47;5037297;28;20061;-81
2021/06/06 08:21:24;;;;;;;57.95;39.28;;;;;;;13.43;99.91;101016.19;5033106;28;20515;-79
2021/06/06 08:23:51;;;;;;;57.40;37.92;;;;;;;13.47;99.46;101016.91;5017060;28;20084;-83
2021/06/06 08:26:20;;;;;;;54.15;37.33;;;;;;;13.49;98.15;101015.88;5017985;28;20050;-80
2021/06/06 08:28:49;;;;;;;47.15;34.80;;;;;;;13.49;97.46;101012.31;5017853;28;20058;-76
2021/06/06 08:31:19;;;;;;;56.17;38.08;;;;;;;13.50;97.73;101014.91;5018413;28;20053;-75
2021/06/06 08:33:46;;;;;;;54.30;36.58;;;;;;;13.63;98.38;101009.69;5017920;28;20451;-74
2021/06/06 08:36:24;;;;;;;50.20;36.47;;;;;;;13.64;96.76;101014.09;5033237;28;20412;-73
2021/06/06 08:38:52;;;;;;;54.08;36.85;;;;;;;13.73;96.39;101014.47;5032865;28;20184;-74
2021/06/06 08:41:54;;;;;;;50.45;36.60;;;;;;;13.62;95.93;101015.13;5017836;28;20140;-76
2021/06/06 08:44:33;;;;;;;51.67;36.60;;;;;;;13.64;97.41;100999.81;5015791;28;20053;-78
2021/06/06 08:47:19;;;;;;;57.30;39.00;;;;;;;13.74;97.44;101014.41;5017984;28;20100;-82
2021/06/06 08:49:49;;;;;;;58.42;38.83;;;;;;;13.78;98.77;101015.06;5017527;28;20057;-80
2021/06/06 08:52:34;;;;;;;55.60;37.30;;;;;;;13.83;96.51;101018.31;5017813;28;20064;-81
2021/06/06 08:55:07;;;;;;;56.95;37.83;;;;;;;13.73;95.26;101004.59;5017624;28;20076;-85
2021/06/06 08:57:46;;;;;;;62.78;40.55;;;;;;;13.70;94.71;101012.84;5017879;28;20108;-80
2021/06/06 09:00:17;;;;;;;55.22;38.15;;;;;;;13.84;95.09;101022.75;5016654;28;20050;-84
2021/06/06 09:03:04;;;;;;;50.60;37.13;;;;;;;13.84;93.98;101009.34;5016301;28;20103;-76
2021/06/06 09:05:36;;;;;;;54.00;36.25;;;;;;;13.89;95.02;101019.78;5017387;28;20049;-77
2021/06/06 09:08:17;;;;;;;50.05;35.42;;;;;;;13.86;95.28;101010.09;5017062;28;20436;-77
2021/06/06 09:10:46;;;;;;;;;;;;;;;14.03;94.30;101025.16;5017640;28;20069;-75
2021/06/06 09:13:14;;;;;;;49.65;34.13;;;;;;;14.01;93.17;101026.22;5017419;28;19969;-76
2021/06/06 09:15:41;;;;;;;49.65;36.08;;;;;;;14.03;92.51;101029.66;5017272;28;20050;-79
2021/06/06 09:18:19;;;;;;;52.45;35.08;;;;;;;14.06;93.57;101022.28;5016648;28;20119;-76
2021/06/06 09:20:47;;;;;;;53.75;37.95;;;;;;;14.09;94.02;101029.28;5036022;28;20446;-75
2021/06/06 09:23:26;;;;;;;48.08;35.92;;;;;;;14.19;93.04;101032.25;5036709;28;20045;-73
2021/06/06 09:26:01;;;;;;;47.35;36.45;;;;;;;14.23;92.81;101033.78;5035687;28;20053;-74
2021/06/06 09:28:30;;;;;;;49.40;36.50;;;;;;;14.15;93.51;101036.09;5035667;28;20049;-75
2021/06/06 09:31:08;;;;;;;53.17;36.55;;;;;;;14.11;93.53;101040.81;5036700;28;20072;-74
2021/06/06 09:33:35;;;;;;;52.00;36.65;;;;;;;14.09;94.70;101043.56;5036398;28;20493;-75
2021/06/06 09:36:19;;;;;;;47.85;35.38;;;;;;;14.12;94.78;101037.16;5035469;28;20053;-72
2021/06/06 09:38:47;;;;;;;45.45;34.13;;;;;;;14.18;94.53;101039.47;5036413;28;20057;-73
2021/06/06 09:41:20;;;;;;;41.28;32.55;;;;;;;14.18;93.69;101042.16;5036231;28;20092;-71
2021/06/06 09:44:05;;;;;;;46.05;33.00;;;;;;;14.16;93.64;101038.66;5036386;28;20115;-73
2021/06/06 09:46:42;;;;;;;42.50;31.30;;;;;;;14.19;93.26;101035.81;5035184;28;20060;-72
2021/06/06 09:49:15;;;;;;;43.67;32.58;;;;;;;14.28;92.98;101038.88;5026446;28;20077;-76
2021/06/06 09:51:42;;;;;;;41.45;30.73;;;;;;;14.41;92.93;101034.47;5028848;28;20107;-75
2021/06/06 09:54:24;;;;;;;37.15;28.35;;;;;;;14.42;91.52;101028.13;5021597;28;20050;-74
2021/06/06 09:56:55;;;;;;;38.45;29.02;;;;;;;14.38;90.69;101015.84;5028134;28;20045;-72
2021/06/06 09:59:32;;;;;;;35.13;28.33;;;;;;;14.42;92.09;101024.59;5026186;28;20112;-73
2021/06/06 10:01:59;;;;;;;34.65;27.98;;;;;;;14.59;93.14;101023.50;5026810;28;20072;-74
2021/06/06 10:04:36;;;;;;;34.60;26.98;;;;;;;14.69;91.80;101029.13;5026298;28;20050;-75
2021/06/06 10:07:28;;;;;;;40.15;28.10;;;;;;;14.66;90.52;101019.47;5023051;28;20443;-75
2021/06/06 10:09:57;;;;;;;33.65;25.77;;;;;;;14.64;89.34;101035.69;5026010;28;20042;-74
2021/06/06 10:12:39;;;;;;;38.03;27.98;;;;;;;14.67;91.43;101043.53;5024254;28;20050;-74
2021/06/06 10:15:12;;;;;;;34.72;27.52;;;;;;;14.67;90.54;101043.53;5023511;28;20049;-75
2021/06/06 10:17:47;;;;;;;34.85;26.83;;;;;;;14.64;89.63;101048.22;5031636;28;20050;-78
2021/06/06 10:20:23;;;;;;;37.92;27.10;;;;;;;14.61;90.82;101056.50;5022384;28;20042;-73
2021/06/06 10:22:58;;;;;;;34.83;25.73;;;;;;;14.66;90.67;101046.34;5017444;28;20057;-75
2021/06/06 10:25:43;;;;;;;33.63;24.70;;;;;;;14.66;89.36;101051.72;5018918;28;20383;-74
2021/06/06 10:28:12;;;;;;;36.22;24.48;;;;;;;14.67;90.63;101048.91;5033895;28;20053;-74
2021/06/06 10:30:45;;;;;;;32.95;23.95;;;;;;;14.67;90.86;101048.06;5028092;28;20046;-72
2021/06/06 10:33:23;;;;;;;31.13;24.63;;;;;;;14.70;91.17;101053.22;5043707;28;20136;-73
2021/06/06 10:35:50;;;;;;;30.42;24.23;;;;;;;14.67;89.63;101050.75;5026442;28;20056;-74
2021/06/06 10:38:20;;;;;;;32.33;24.50;;;;;;;14.81;90.88;101052.56;5024747;28;20054;-73
2021/06/06 10:40:50;;;;;;;31.58;23.92;;;;;;;14.75;89.88;101056.50;5021099;28;20041;-73
2021/06/06 10:43:36;;;;;;;;;;;;;;;14.82;88.93;101056.13;5029454;28;20486;-83
2021/06/06 10:46:19;;;;;;;28.67;22.20;;;;;;;14.81;88.37;101055.25;5022255;28;19952;-72
2021/06/06 10:49:02;;;;;;;30.38;22.50;;;;;;;14.87;89.77;101048.63;5027576;28;20398;-77
2021/06/06 10:51:42;;;;;;;35.40;25.08;;;;;;;14.99;89.87;101050.47;5026741;28;20052;-75
2021/06/06 10:54:34;;;;;;;27.35;23.73;;;;;;;15.05;88.73;101047.41;5024061;28;20108;-74
2021/06/06 10:57:09;;;;;;;28.58;23.30;;;;;;;15.19;89.58;101051.00;5026245;28;20052;-73
2021/06/06 10:59:50;;;;;;;32.10;24.48;;;;;;;15.26;88.10;101038.88;5022938;28;20100;-80
2021/06/06 11:02:39;;;;;;;31.88;23.50;;;;;;;15.37;87.89;101037.28;5041874;28;20058;-78
2021/06/06 11:05:22;;;;;;;33.88;24.90;;;;;;;15.41;88.03;101025.38;5026116;28;20124;-81
2021/06/06 11:07:50;;;;;;;30.17;23.15;;;;;;;15.72;86.88;101050.19;5028371;28;20049;-77
2021/06/06 11:10:18;;;;;;;26.48;21.80;;;;;;;15.69;84.29;101045.84;5040783;28;20041;-80
2021/06/06 11:12:49;;;;;;;35.03;23.00;;;;;;;15.65;85.25;101046.19;5026315;28;20461;-77
2021/06/06 11:15:37;;;;;;;30.00;21.75;;;;;;;15.70;84.18;101052.13;5024199;28;20053;-80
2021/06/06 11:18:11;;;;;;;;;;;;;;;15.51;85.10;101047.13;5026291;28;20072;-80
2021/06/06 11:20:55;;;;;;;32.45;24.10;;;;;;;15.51;86.12;101041.75;5025353;28;19936;-79
2021/06/06 11:23:42;;;;;;;33.05;23.58;;;;;;;15.59;86.15;101047.47;5023265;28;20746;-75
2021/06/06 11:26:18;;;;;;;29.02;22.73;;;;;;;15.67;85.57;101046.94;5025237;28;20107;-74
2021/06/06 11:28:46;;;;;;;28.73;23.05;;;;;;;15.65;85.15;101038.09;5022321;28;20100;-77